Time;durP1;ratioP1;P1;durP2;ratioP2;P2;SDS_P1;SDS_P2;PMS_P1;PMS_P2;Temp;Humidity;BMP_temperature;BMP_pressure;BME280_temperature;BME280_humidity;BME280_pressure;Samples;Min_cycle;Max_cycle;Signal;HPM_P1;HPM_P2
2023/08/24 00:00:41;;;;;;;10.60;7.93;;;;;22.90;97122.00;;;;5041810;28;20505;-85
2023/08/24 00:03:32;;;;;;;12.23;9.03;;;;;22.70;97126.00;;;;5036764;28;20502;-87
2023/08/24 00:06:21;;;;;;;11.57;8.37;;;;;22.40;97130.00;;;;5039042;28;20193;-88
2023/08/24 00:09:11;;;;;;;10.40;8.95;;;;;22.40;97135.00;;;;5031374;28;20217;-86
2023/08/24 00:12:00;;;;;;;17.60;9.60;;;;;22.20;97130.00;;;;5040503;28;20208;-88
2023/08/24 00:14:49;;;;;;;11.13;8.50;;;;;22.30;97126.00;;;;5045539;28;20215;-86
2023/08/24 00:17:39;;;;;;;11.67;9.50;;;;;22.40;97129.00;;;;5035169;28;20580;-86
2023/08/24 00:20:29;;;;;;;12.43;9.73;;;;;22.40;97126.00;;;;5040259;28;20217;-88
2023/08/24 00:23:19;;;;;;;11.97;8.97;;;;;22.20;97128.00;;;;5031480;28;20211;-86
2023/08/24 00:26:08;;;;;;;15.10;8.90;;;;;22.30;97134.00;;;;5036888;28;20227;-85
2023/08/24 00:28:57;;;;;;;11.97;10.00;;;;;22.30;97132.00;;;;5035283;28;20855;-86
2023/08/24 00:31:46;;;;;;;14.40;9.43;;;;;22.10;97130.00;;;;5034649;28;20228;-84
2023/08/24 00:34:35;;;;;;;11.87;8.83;;;;;22.20;97130.00;;;;5031622;28;20212;-86
2023/08/24 00:37:26;;;;;;;11.17;8.47;;;;;22.00;97118.00;;;;5035302;28;20205;-85
2023/08/24 00:40:15;;;;;;;13.10;9.30;;;;;22.30;97122.00;;;;5029592;28;20265;-86
2023/08/24 00:43:04;;;;;;;13.03;8.90;;;;;22.50;97119.00;;;;5029412;28;20573;-86
2023/08/24 00:45:56;;;;;;;10.07;8.97;;;;;22.30;97117.00;;;;5033050;28;20205;-87
2023/08/24 00:48:45;;;;;;;16.40;9.95;;;;;22.30;97126.00;;;;5036605;28;20212;-86
2023/08/24 00:51:35;;;;;;;14.20;9.67;;;;;22.40;97123.00;;;;5031938;28;20232;-88
2023/08/24 00:54:27;;;;;;;12.77;8.93;;;;;22.40;97117.00;;;;5029727;28;20211;-87
2023/08/24 00:57:16;;;;;;;12.13;8.47;;;;;22.40;97117.00;;;;5042126;28;20189;-86
2023/08/24 01:00:09;;;;;;;11.23;10.03;;;;;22.30;97118.00;;;;5030498;28;20221;-88
2023/08/24 01:02:59;;;;;;;17.23;9.93;;;;;22.20;97115.00;;;;5030792;28;20568;-85
2023/08/24 01:05:48;;;;;;;9.73;7.43;;;;;22.30;97116.00;;;;5038627;28;20784;-86
2023/08/24 01:08:37;;;;;;;12.97;9.27;;;;;22.00;97112.00;;;;5026860;28;20205;-86
2023/08/24 01:11:34;;;;;;;17.20;9.00;;;;;21.80;97111.00;;;;5025152;28;20244;-87
2023/08/24 01:14:29;;;;;;;11.73;8.63;;;;;21.80;97112.00;;;;5025368;28;20216;-85
2023/08/24 01:17:22;;;;;;;17.93;9.60;;;;;22.00;97110.00;;;;5035837;28;20223;-87
2023/08/24 01:20:12;;;;;;;11.67;10.13;;;;;22.00;97116.00;;;;5032408;28;20302;-88
2023/08/24 01:23:08;;;;;;;14.87;8.40;;;;;22.20;97113.00;;;;5036176;28;20204;-87
2023/08/24 01:26:11;;;;;;;11.00;8.93;;;;;22.30;97119.00;;;;5033945;28;20220;-87
2023/08/24 01:29:00;;;;;;;14.07;9.97;;;;;22.20;97115.00;;;;5034936;28;20215;-87
2023/08/24 01:31:50;;;;;;;10.87;8.90;;;;;22.00;97110.00;;;;5040041;28;20232;-88
2023/08/24 01:34:39;;;;;;;12.50;10.57;;;;;22.20;97110.00;;;;5038827;28;20574;-86
2023/08/24 01:37:28;;;;;;;10.33;8.53;;;;;22.10;97103.00;;;;5035672;28;20213;-88
2023/08/24 01:40:21;;;;;;;11.77;9.00;;;;;22.00;97108.00;;;;5031299;28;20217;-87
2023/08/24 01:43:12;;;;;;;11.23;9.30;;;;;21.80;97109.00;;;;5035421;28;20208;-87
2023/08/24 01:46:02;;;;;;;11.97;8.70;;;;;21.80;97103.00;;;;5042097;28;20212;-85
2023/08/24 01:48:51;;;;;;;12.70;9.27;;;;;21.50;97104.00;;;;5029717;28;20216;-88
2023/08/24 01:51:41;;;;;;;15.93;10.40;;;;;21.80;97097.00;;;;5031266;28;20601;-87
2023/08/24 01:54:30;;;;;;;10.70;9.50;;;;;21.80;97103.00;;;;5031852;28;20751;-87
2023/08/24 01:57:19;;;;;;;10.07;9.00;;;;;22.00;97097.00;;;;5030413;28;20213;-88
2023/08/24 02:00:11;;;;;;;11.80;9.80;;;;;22.00;97098.00;;;;5029665;28;20266;-87
2023/08/24 02:03:00;;;;;;;10.60;8.00;;;;;22.00;97093.00;;;;5034385;28;20673;-88
2023/08/24 02:05:49;;;;;;;13.30;10.23;;;;;22.00;97091.00;;;;5034817;28;20248;-86
2023/08/24 02:08:38;;;;;;;11.40;8.10;;;;;21.70;97094.00;;;;5030596;28;20588;-86
2023/08/24 02:11:28;;;;;;;9.67;8.67;;;;;21.70;97091.00;;;;5030344;28;20229;-87
2023/08/24 02:14:17;;;;;;;10.03;8.10;;;;;21.40;97090.00;;;;5034055;28;20201;-87
2023/08/24 02:17:08;;;;;;;14.53;9.00;;;;;21.60;97085.00;;;;5033096;28;20220;-87
2023/08/24 02:19:57;;;;;;;9.00;8.10;;;;;21.70;97076.00;;;;5034333;28;20224;-86
2023/08/24 02:22:46;;;;;;;11.10;9.60;;;;;21.80;97078.00;;;;5032978;28;20208;-86
2023/08/24 02:25:35;;;;;;;12.93;10.23;;;;;21.60;97087.00;;;;5039907;28;20220;-86
2023/08/24 02:28:25;;;;;;;11.93;10.30;;;;;21.30;97083.00;;;;5027112;28;20752;-87
2023/08/24 02:31:16;;;;;;;9.73;8.50;;;;;21.10;97079.00;;;;5042702;28;20268;-86
2023/08/24 02:34:06;;;;;;;9.43;8.40;;;;;21.40;97088.00;;;;5029525;28;20290;-85
2023/08/24 02:36:57;;;;;;;13.33;9.53;;;;;21.70;97086.00;;;;5032305;28;20566;-85
2023/08/24 02:39:46;;;;;;;12.83;10.27;;;;;21.80;97080.00;;;;5041432;28;20213;-86
2023/08/24 02:42:35;;;;;;;12.80;8.63;;;;;21.80;97075.00;;;;5031472;28;20201;-85
2023/08/24 02:45:25;;;;;;;10.33;8.50;;;;;21.40;97073.00;;;;5032675;28;20193;-85
2023/08/24 02:48:14;;;;;;;13.20;9.57;;;;;21.40;97073.00;;;;5027078;28;20209;-88
2023/08/24 02:51:06;;;;;;;12.43;11.03;;;;;21.50;97074.00;;;;5032482;28;20233;-85
2023/08/24 02:53:55;;;;;;;9.93;8.97;;;;;21.50;97077.00;;;;5033674;28;20587;-85
2023/08/24 02:56:44;;;;;;;15.20;9.73;;;;;21.60;97081.00;;;;5030280;28;20201;-87
2023/08/24 02:59:33;;;;;;;12.97;9.83;;;;;21.50;97079.00;;;;5032324;28;20213;-86
2023/08/24 03:02:22;;;;;;;15.57;10.70;;;;;21.50;97091.00;;;;5032039;28;20213;-86
2023/08/24 03:05:12;;;;;;;14.63;9.13;;;;;21.20;97085.00;;;;5037863;28;20506;-85
2023/08/24 03:08:04;;;;;;;15.97;9.40;;;;;21.10;97083.00;;;;5038960;28;20201;-87
2023/08/24 03:10:53;;;;;;;11.73;9.47;;;;;21.20;97089.00;;;;5033537;28;20294;-86
2023/08/24 03:13:42;;;;;;;11.53;8.83;;;;;21.10;97084.00;;;;5031765;28;20208;-87
2023/08/24 03:16:31;;;;;;;18.40;10.50;;;;;21.30;97086.00;;;;5031266;28;20205;-86
2023/08/24 03:19:20;;;;;;;11.27;9.97;;;;;21.30;97090.00;;;;5026770;28;20197;-87
2023/08/24 03:22:09;;;;;;;15.63;10.10;;;;;21.10;97089.00;;;;5023987;28;20213;-85
2023/08/24 03:25:00;;;;;;;11.50;10.10;;;;;20.70;97094.00;;;;5036284;28;20212;-85
2023/08/24 03:27:50;;;;;;;11.10;9.90;;;;;20.80;97099.00;;;;5031139;28;20248;-85
2023/08/24 03:30:40;;;;;;;12.97;8.83;;;;;20.60;97100.00;;;;5033272;28;20221;-84
2023/08/24 03:33:30;;;;;;;14.77;9.60;;;;;20.80;97107.00;;;;5032269;28;20201;-85
2023/08/24 03:36:19;;;;;;;11.37;9.53;;;;;21.00;97106.00;;;;5029823;28;20207;-86
2023/08/24 03:39:08;;;;;;;11.17;10.13;;;;;21.10;97102.00;;;;5027947;28;20205;-87
2023/08/24 03:41:59;;;;;;;18.43;11.60;;;;;21.00;97096.00;;;;5041587;28;20190;-86
2023/08/24 03:44:48;;;;;;;13.97;11.03;;;;;21.30;97106.00;;;;5037843;28;20581;-86
2023/08/24 03:47:37;;;;;;;15.17;11.07;;;;;21.40;97098.00;;;;5038703;28;20227;-85
2023/08/24 03:50:27;;;;;;;15.30;10.57;;;;;21.40;97099.00;;;;5038201;28;20232;-86
2023/08/24 03:53:16;;;;;;;11.57;9.80;;;;;21.10;97103.00;;;;5037657;28;20212;-85
2023/08/24 03:56:05;;;;;;;13.93;10.53;;;;;20.80;97108.00;;;;5041645;28;20689;-86
2023/08/24 03:58:55;;;;;;;17.17;10.43;;;;;20.50;97109.00;;;;5039858;28;20211;-85
2023/08/24 04:01:45;;;;;;;13.90;10.20;;;;;20.70;97109.00;;;;5032018;28;20581;-85
2023/08/24 04:04:34;;;;;;;12.00;9.30;;;;;20.70;97115.00;;;;5041637;28;20197;-87
2023/08/24 04:07:23;;;;;;;13.33;11.40;;;;;20.90;97107.00;;;;5026793;28;20278;-85
2023/08/24 04:10:13;;;;;;;14.47;10.90;;;;;20.90;97119.00;;;;5031661;28;20588;-85
2023/08/24 04:13:02;;;;;;;13.60;9.47;;;;;20.70;97118.00;;;;5041448;28;20232;-85
2023/08/24 04:15:52;;;;;;;12.80;10.03;;;;;20.40;97110.00;;;;5032622;28;20731;-86
2023/08/24 04:18:42;;;;;;;12.60;10.87;;;;;20.70;97112.00;;;;5031386;28;20225;-86
2023/08/24 04:21:31;;;;;;;19.10;10.37;;;;;20.60;97109.00;;;;5037944;28;20239;-85
2023/08/24 04:24:20;;;;;;;11.97;9.93;;;;;20.20;97113.00;;;;5026218;28;20221;-86
2023/08/24 04:27:09;;;;;;;14.43;11.50;;;;;20.20;97121.00;;;;5024622;28;20212;-85
2023/08/24 04:29:58;;;;;;;15.20;12.13;;;;;20.70;97116.00;;;;5033603;28;20228;-85
2023/08/24 04:32:49;;;;;;;19.53;11.57;;;;;21.20;97127.00;;;;5055625;28;20240;-87
2023/08/24 04:35:38;;;;;;;14.87;10.57;;;;;21.30;97132.00;;;;5059312;28;20201;-86
2023/08/24 04:38:27;;;;;;;12.60;9.77;;;;;20.60;97120.00;;;;5052073;28;20219;-86
2023/08/24 04:41:16;;;;;;;16.23;10.63;;;;;20.30;97130.00;;;;5047066;28;20562;-87
2023/08/24 04:44:07;;;;;;;10.73;9.63;;;;;20.20;97127.00;;;;5055664;28;20224;-86
2023/08/24 04:46:57;;;;;;;17.40;9.83;;;;;20.30;97116.00;;;;5048059;28;20665;-87
2023/08/24 04:49:47;;;;;;;12.40;10.43;;;;;20.20;97128.00;;;;5037518;28;20193;-86
2023/08/24 04:52:36;;;;;;;12.47;10.30;;;;;20.30;97126.00;;;;5038492;28;20233;-87
2023/08/24 04:55:25;;;;;;;13.17;11.13;;;;;20.70;97120.00;;;;5036317;28;20202;-88
2023/08/24 04:58:15;;;;;;;12.03;10.77;;;;;20.50;97139.00;;;;5050300;28;20227;-87
2023/08/24 05:01:04;;;;;;;13.37;10.63;;;;;20.60;97120.00;;;;5040950;28;20229;-86
2023/08/24 05:03:53;;;;;;;16.80;10.10;;;;;21.00;97133.00;;;;5049893;28;20561;-87
2023/08/24 05:06:44;;;;;;;19.70;11.50;;;;;21.10;97135.00;;;;5048270;28;20206;-88
2023/08/24 05:09:33;;;;;;;11.13;9.83;;;;;20.90;97139.00;;;;5037866;28;20201;-88
2023/08/24 05:12:23;;;;;;;15.37;10.73;;;;;21.20;97131.00;;;;5034670;28;20236;-88
2023/08/24 05:15:13;;;;;;;15.17;10.47;;;;;21.50;97142.00;;;;5034088;28;20582;-86
2023/08/24 05:18:02;;;;;;;11.73;9.90;;;;;21.40;97134.00;;;;5034146;28;20216;-88
2023/08/24 05:20:51;;;;;;;12.73;10.37;;;;;21.60;97137.00;;;;5038448;28;20712;-86
2023/08/24 05:23:42;;;;;;;13.97;10.20;;;;;21.70;97141.00;;;;5047121;28;20216;-87
2023/08/24 05:26:31;;;;;;;13.23;10.10;;;;;21.60;97141.00;;;;5038815;28;20216;-87
2023/08/24 05:29:20;;;;;;;14.57;10.43;;;;;21.80;97145.00;;;;5041528;28;20209;-88
2023/08/24 05:32:09;;;;;;;17.73;9.90;;;;;21.50;97141.00;;;;5043764;28;20235;-89
2023/08/24 05:34:59;;;;;;;10.63;8.63;;;;;21.50;97141.00;;;;5037953;28;20692;-87
2023/08/24 05:37:48;;;;;;;15.43;9.73;;;;;21.60;97135.00;;;;5048842;28;20418;-87
2023/08/24 05:40:39;;;;;;;15.30;9.50;;;;;21.50;97139.00;;;;5057185;28;20345;-86
2023/08/24 05:43:28;;;;;;;16.63;10.90;;;;;21.60;97140.00;;;;5044803;28;20203;-86
2023/08/24 05:46:17;;;;;;;11.60;8.63;;;;;21.70;97146.00;;;;5033576;28;20307;-87
2023/08/24 05:49:06;;;;;;;14.17;9.53;;;;;21.90;97133.00;;;;5052288;28;20213;-85
2023/08/24 05:51:55;;;;;;;14.33;9.30;;;;;22.10;97136.00;;;;5046600;28;20221;-88
2023/08/24 05:54:44;;;;;;;15.50;8.77;;;;;21.90;97132.00;;;;5044550;28;20219;-87
2023/08/24 05:57:35;;;;;;;12.23;9.47;;;;;22.30;97147.00;;;;5036562;28;20216;-87
2023/08/24 06:00:24;;;;;;;9.77;8.30;;;;;22.70;97141.00;;;;5034575;28;20236;-87
2023/08/24 06:03:13;;;;;;;14.27;10.60;;;;;22.50;97136.00;;;;5029257;28;20202;-87
2023/08/24 06:06:04;;;;;;;13.33;9.17;;;;;22.90;97139.00;;;;5050424;28;20589;-87
2023/08/24 06:08:53;;;;;;;14.77;9.40;;;;;22.90;97141.00;;;;5041993;28;20209;-87
2023/08/24 06:11:42;;;;;;;12.27;9.40;;;;;22.70;97129.00;;;;5039900;28;20239;-88
2023/08/24 06:14:33;;;;;;;11.93;8.90;;;;;22.90;97131.00;;;;5030300;28;20204;-86
2023/08/24 06:17:22;;;;;;;14.03;9.93;;;;;23.10;97130.00;;;;5030899;28;20217;-89
2023/08/24 06:20:13;;;;;;;15.30;9.03;;;;;23.10;97122.00;;;;5035399;28;20221;-89
2023/08/24 06:23:02;;;;;;;10.23;8.67;;;;;23.30;97132.00;;;;5037681;28;20687;-89
2023/08/24 06:25:52;;;;;;;15.90;10.90;;;;;23.30;97130.00;;;;5036323;28;20205;-86
2023/08/24 06:28:41;;;;;;;10.47;9.37;;;;;23.50;97123.00;;;;5034865;28;20209;-87
2023/08/24 06:31:32;;;;;;;15.47;11.73;;;;;23.70;97142.00;;;;5032018;28;20228;-88
2023/08/24 06:34:22;;;;;;;13.10;9.93;;;;;23.90;97122.00;;;;5035186;28;20224;-87
2023/08/24 06:37:11;;;;;;;20.70;11.27;;;;;24.20;97129.00;;;;5026335;28;20201;-86
2023/08/24 06:40:00;;;;;;;12.23;10.93;;;;;24.70;97124.00;;;;5041078;28;20633;-88
2023/08/24 06:42:49;;;;;;;14.10;11.57;;;;;25.10;97130.00;;;;5048348;28;20201;-87
2023/08/24 06:45:38;;;;;;;16.30;11.63;;;;;25.30;97132.00;;;;5040226;28;20696;-86
2023/08/24 06:48:30;;;;;;;18.47;12.00;;;;;25.40;97130.00;;;;5029674;28;20205;-86
2023/08/24 06:51:19;;;;;;;17.27;10.03;;;;;25.70;97129.00;;;;5029567;28;20252;-88
2023/08/24 06:54:08;;;;;;;23.43;13.27;;;;;25.80;97126.00;;;;5029471;28;20225;-87
2023/08/24 06:56:57;;;;;;;20.87;10.60;;;;;25.90;97120.00;;;;5032497;28;20211;-87
2023/08/24 06:59:47;;;;;;;14.43;11.10;;;;;26.00;97126.00;;;;5041171;28;20205;-86
2023/08/24 07:02:36;;;;;;;17.87;11.33;;;;;26.30;97120.00;;;;5032640;28;20208;-87
2023/08/24 07:05:27;;;;;;;17.23;12.93;;;;;26.40;97122.00;;;;5027401;28;20205;-88
2023/08/24 07:08:16;;;;;;;12.20;10.90;;;;;26.70;97119.00;;;;5030317;28;20201;-86
2023/08/24 07:11:05;;;;;;;16.93;11.63;;;;;26.80;97124.00;;;;5039765;28;20608;-86
2023/08/24 07:13:54;;;;;;;16.50;11.50;;;;;26.80;97123.00;;;;5026846;28;20228;-88
2023/08/24 07:16:43;;;;;;;15.13;12.13;;;;;27.10;97125.00;;;;5031426;28;20206;-86
2023/08/24 07:19:32;;;;;;;15.43;10.43;;;;;27.20;97123.00;;;;5027887;28;20229;-87
2023/08/24 07:22:23;;;;;;;18.77;11.43;;;;;27.40;97118.00;;;;5026291;28;20213;-88
2023/08/24 07:25:13;;;;;;;15.43;12.13;;;;;27.50;97117.00;;;;5032352;28;20228;-86
2023/08/24 07:28:03;;;;;;;17.13;11.50;;;;;27.70;97122.00;;;;5042626;28;20209;-87
2023/08/24 07:30:55;;;;;;;21.23;11.47;;;;;27.80;97123.00;;;;5033596;28;20279;-87
2023/08/24 07:33:44;;;;;;;14.77;10.33;;;;;27.70;97120.00;;;;5031277;28;20226;-87
2023/08/24 07:36:34;;;;;;;19.90;11.63;;;;;28.10;97116.00;;;;5047330;28;20202;-88
2023/08/24 07:39:24;;;;;;;14.50;10.43;;;;;28.20;97111.00;;;;5031317;28;20207;-87
2023/08/24 07:42:13;;;;;;;15.30;10.83;;;;;28.30;97115.00;;;;5019274;28;20606;-86
2023/08/24 07:45:03;;;;;;;14.50;11.17;;;;;28.50;97129.00;;;;5024784;28;20234;-86
2023/08/24 07:47:52;;;;;;;17.80;11.50;;;;;28.60;97122.00;;;;5049888;28;20204;-86
2023/08/24 07:50:41;;;;;;;18.53;11.77;;;;;28.50;97125.00;;;;5034970;28;20225;-85
2023/08/24 07:53:32;;;;;;;18.03;12.00;;;;;28.80;97121.00;;;;5035824;28;20254;-85
2023/08/24 07:56:23;;;;;;;18.60;11.13;;;;;29.00;97119.00;;;;5043913;28;20684;-86
2023/08/24 07:59:12;;;;;;;13.20;10.27;;;;;29.10;97118.00;;;;5029229;28;20216;-86
2023/08/24 08:02:01;;;;;;;17.23;11.27;;;;;29.40;97125.00;;;;5050051;28;20218;-86
2023/08/24 08:04:51;;;;;;;15.27;11.73;;;;;29.60;97121.00;;;;5032947;28;20211;-86
2023/08/24 08:07:40;;;;;;;17.37;11.33;;;;;29.80;97116.00;;;;5047428;28;20207;-86
2023/08/24 08:10:29;;;;;;;16.07;10.83;;;;;29.80;97110.00;;;;5039029;28;20238;-87
2023/08/24 08:13:19;;;;;;;15.07;11.23;;;;;29.80;97112.00;;;;5029431;28;20234;-85
2023/08/24 08:16:09;;;;;;;14.60;11.80;;;;;30.10;97123.00;;;;5043532;28;20201;-86
2023/08/24 08:18:58;;;;;;;14.93;10.77;;;;;30.30;97122.00;;;;5036174;28;20220;-86
2023/08/24 08:21:47;;;;;;;16.60;11.07;;;;;30.40;97123.00;;;;5029320;28;20235;-86
2023/08/24 08:24:36;;;;;;;19.30;11.50;;;;;30.60;97116.00;;;;5046884;28;20216;-86
2023/08/24 08:27:25;;;;;;;11.57;10.17;;;;;30.80;97114.00;;;;5025766;28;20591;-87
2023/08/24 08:30:16;;;;;;;11.73;9.50;;;;;30.90;97113.00;;;;5036574;28;20220;-86
2023/08/24 08:33:05;;;;;;;11.77;10.40;;;;;31.00;97116.00;;;;5039131;28;20211;-86
2023/08/24 08:35:54;;;;;;;13.07;10.07;;;;;31.20;97110.00;;;;5042160;28;20254;-87
2023/08/24 08:38:44;;;;;;;14.00;10.77;;;;;31.30;97106.00;;;;5033502;28;20216;-87
2023/08/24 08:41:42;;;;;;;13.20;9.73;;;;;31.30;97105.00;;;;5033714;28;20230;-87
2023/08/24 08:44:32;;;;;;;11.87;9.27;;;;;31.20;97108.00;;;;5034822;28;20204;-89
2023/08/24 08:47:23;;;;;;;8.77;7.97;;;;;31.10;97098.00;;;;5046127;28;20207;-87
2023/08/24 08:50:12;;;;;;;10.25;8.73;;;;;31.50;97101.00;;;;5031110;28;20237;-86
2023/08/24 08:53:02;;;;;;;11.25;9.18;;;;;31.70;97102.00;;;;5033446;28;20585;-87
2023/08/24 08:55:53;;;;;;;13.07;9.07;;;;;31.80;97102.00;;;;5042212;28;20200;-87
2023/08/24 08:58:43;;;;;;;11.98;9.50;;;;;31.80;97104.00;;;;5048336;28;20253;-87
2023/08/24 09:01:32;;;;;;;12.07;8.23;;;;;31.70;97104.00;;;;5033640;28;20278;-87
2023/08/24 09:04:23;;;;;;;11.68;8.75;;;;;32.10;97101.00;;;;5047684;28;20207;-86
2023/08/24 09:07:12;;;;;;;12.00;8.10;;;;;32.00;97101.00;;;;5036708;28;20213;-86
2023/08/24 09:10:02;;;;;;;9.80;8.45;;;;;32.00;97098.00;;;;5038472;28;20231;-87
2023/08/24 09:12:51;;;;;;;10.85;8.98;;;;;32.20;97097.00;;;;5036823;28;20202;-87
2023/08/24 09:15:40;;;;;;;8.90;8.00;;;;;32.50;97094.00;;;;5031717;28;20637;-86
2023/08/24 09:18:36;;;;;;;11.52;8.88;;;;;32.80;97097.00;;;;5035815;28;20220;-87
2023/08/24 09:21:27;;;;;;;11.40;9.70;;;;;33.00;97094.00;;;;5030849;28;20232;-88
2023/08/24 09:24:16;;;;;;;10.30;8.20;;;;;33.30;97092.00;;;;5034721;28;20212;-88
2023/08/24 09:27:16;;;;;;;9.13;8.23;;;;;33.50;97090.00;;;;5051349;28;20192;-88
2023/08/24 09:30:07;;;;;;;13.13;8.45;;;;;33.50;97090.00;;;;5053137;28;20229;-87
2023/08/24 09:32:56;;;;;;;9.55;8.45;;;;;33.60;97084.00;;;;5061589;28;20199;-87
2023/08/24 09:35:45;;;;;;;12.48;9.15;;;;;33.90;97093.00;;;;5061136;28;20235;-86
2023/08/24 09:38:36;;;;;;;11.50;8.63;;;;;34.10;97083.00;;;;5047387;28;20214;-86
2023/08/24 09:41:25;;;;;;;9.35;8.45;;;;;34.30;97089.00;;;;5039521;28;20227;-86
2023/08/24 09:44:15;;;;;;;10.07;8.23;;;;;34.40;97084.00;;;;5044190;28;20201;-86
2023/08/24 09:47:09;;;;;;;9.98;7.95;;;;;34.40;97076.00;;;;5051336;28;20706;-86
2023/08/24 09:49:59;;;;;;;9.75;7.95;;;;;34.40;97067.00;;;;5036896;28;20223;-85
2023/08/24 09:52:49;;;;;;;9.95;7.40;;;;;34.60;97067.00;;;;5038378;28;20205;-86
2023/08/24 09:55:41;;;;;;;10.43;7.95;;;;;33.90;97066.00;;;;5034703;28;20599;-85
2023/08/24 09:58:31;;;;;;;11.38;8.02;;;;;34.20;97063.00;;;;5030524;28;20206;-85
2023/08/24 10:01:21;;;;;;;8.68;7.57;;;;;34.70;97061.00;;;;5033180;28;20227;-85
2023/08/24 10:04:11;;;;;;;8.90;8.10;;;;;34.60;97057.00;;;;5034365;28;20201;-86
2023/08/24 10:07:08;;;;;;;10.02;7.72;;;31.60;99.90;34.00;97055.00;;;;5045161;28;20201;-85
2023/08/24 10:10:04;;;;;;;11.05;9.05;;;31.40;99.90;34.10;97050.00;;;;5053172;28;20224;-85
2023/08/24 10:13:04;;;;;;;9.32;8.32;;;31.20;99.90;33.70;97044.00;;;;5055178;28;20254;-87
2023/08/24 10:15:55;;;;;;;10.45;8.10;;;31.20;99.90;34.20;97051.00;;;;5041434;28;20231;-85
2023/08/24 10:18:44;;;;;;;9.20;8.30;;;31.20;99.90;34.90;97048.00;;;;5039581;28;20213;-86
2023/08/24 10:21:34;;;;;;;12.70;8.18;;;31.40;99.90;35.00;97042.00;;;;5063114;28;20235;-86
2023/08/24 10:24:23;;;;;;;8.80;7.85;;;31.70;99.90;34.20;97039.00;;;;5044551;28;20205;-86
2023/08/24 10:27:13;;;;;;;10.88;7.47;;;31.60;99.90;34.70;97033.00;;;;5045352;28;20301;-87
2023/08/24 10:30:04;;;;;;;7.57;6.88;;;31.60;99.90;35.50;97039.00;;;;5043700;28;20226;-86
2023/08/24 10:32:54;;;;;;;8.70;7.63;;;31.80;99.90;35.20;97030.00;;;;5040415;28;20205;-85
2023/08/24 10:35:43;;;;;;;10.00;8.25;;;31.90;99.90;34.90;97029.00;;;;5043919;28;20307;-85
2023/08/24 10:38:36;;;;;;;12.20;7.18;;;32.00;99.90;35.40;97027.00;;;;5044459;28;20218;-86
2023/08/24 10:41:28;;;;;;;8.90;8.00;;;32.10;99.90;34.60;97025.00;;;;5051443;28;20239;-85
2023/08/24 10:44:26;;;;;;;9.45;8.50;;;32.10;99.90;35.10;97013.00;;;;5037631;28;20208;-85
2023/08/24 10:47:20;;;;;;;10.63;7.57;;;32.10;99.90;34.50;97013.00;;;;5060770;28;20198;-85
2023/08/24 10:50:10;;;;;;;15.15;7.80;;;32.20;99.80;34.20;97008.00;;;;5039669;28;20232;-85
2023/08/24 10:52:59;;;;;;;9.60;7.50;;;32.00;99.40;35.30;97008.00;;;;5044109;28;20212;-85
2023/08/24 10:55:48;;;;;;;7.53;6.78;;;32.00;99.90;35.20;97007.00;;;;5044316;28;20224;-86
2023/08/24 10:58:37;;;;;;;7.70;7.00;;;32.20;99.10;35.10;97004.00;;;;5046644;28;20564;-85
2023/08/24 11:01:26;;;;;;;8.48;7.68;;;32.30;98.80;35.00;96992.00;;;;5031718;28;20286;-85
2023/08/24 11:04:16;;;;;;;9.27;7.53;;;32.20;99.20;35.10;96985.00;;;;5049343;28;20205;-86
2023/08/24 11:07:05;;;;;;;11.50;7.72;;;32.10;98.30;35.70;96980.00;;;;5044031;28;20230;-85
2023/08/24 11:09:54;;;;;;;10.10;6.80;;;32.40;98.30;35.10;96981.00;;;;5038635;28;20213;-85
2023/08/24 11:13:11;;;;;;;8.35;7.20;;;32.50;98.00;35.40;96982.00;;;;5056543;28;20215;-86
2023/08/24 11:16:05;;;;;;;7.40;6.70;;;32.40;97.50;35.80;96977.00;;;;5050919;28;20682;-85
2023/08/24 11:18:54;;;;;;;8.07;7.28;;;32.50;97.70;37.10;96972.00;;;;5061467;28;20200;-86
2023/08/24 11:21:47;;;;;;;8.60;7.68;;;32.90;98.70;37.20;96966.00;;;;5047201;28;20240;-86
2023/08/24 11:24:36;;;;;;;7.93;7.25;;;33.30;97.60;37.60;96972.00;;;;5048247;28;20216;-86
2023/08/24 11:27:27;;;;;;;8.05;6.95;;;33.60;97.70;37.60;96969.00;;;;5058610;28;20691;-86
2023/08/24 11:30:19;;;;;;;7.53;6.80;;;33.90;96.30;37.00;97021.00;;;;5048022;28;20220;-86
2023/08/24 11:33:08;;;;;;;8.23;7.43;;;33.90;96.00;36.50;96964.00;;;;5044801;28;20193;-87
2023/08/24 11:35:57;;;;;;;7.90;7.28;;;33.90;94.50;36.50;96962.00;;;;5055040;28;20217;-85
2023/08/24 11:38:48;;;;;;;7.65;6.72;;;33.80;94.60;34.40;96965.00;;;;5040564;28;20199;-86
2023/08/24 11:41:37;;;;;;;11.63;7.55;;;33.30;94.40;36.60;96972.00;;;;5053792;28;20235;-87
2023/08/24 11:44:26;;;;;;;8.45;6.97;;;33.20;96.00;35.50;96958.00;;;;5041805;28;20274;-88
2023/08/24 11:47:17;;;;;;;8.95;6.95;;;33.20;95.00;35.90;96957.00;;;;5041915;28;20208;-87
2023/08/24 11:50:07;;;;;;;8.02;7.32;;;33.40;94.70;36.60;96963.00;;;;5045590;28;20217;-86
2023/08/24 11:52:56;;;;;;;6.95;6.25;;;33.50;95.60;37.30;96966.00;;;;5052754;28;20216;-86
2023/08/24 11:55:47;;;;;;;9.98;7.13;;;33.70;94.60;36.20;96964.00;;;;5039726;28;20221;-87
2023/08/24 11:58:45;;;;;;;8.13;7.32;;;33.90;93.90;36.30;96969.00;;;;5038592;28;20205;-85
2023/08/24 12:01:34;;;;;;;10.90;7.40;;;33.80;94.70;37.80;96964.00;;;;5043411;28;20228;-86
2023/08/24 12:04:23;;;;;;;7.72;6.75;;;34.10;94.20;37.90;96950.00;;;;5035958;28;20225;-86
2023/08/24 12:07:12;;;;;;;10.10;6.95;;;34.40;93.30;38.30;96950.00;;;;5043309;28;20220;-85
2023/08/24 12:10:02;;;;;;;9.40;7.57;;;34.60;93.80;38.30;96946.00;;;;5043052;28;20217;-87
2023/08/24 12:13:04;;;;;;;8.00;6.90;;;34.90;93.70;39.50;96942.00;;;;5045137;28;20212;-86
2023/08/24 12:15:55;;;;;;;10.43;7.30;;;35.20;93.00;37.60;96944.00;;;;5042483;28;20220;-86
2023/08/24 12:18:50;;;;;;;8.50;6.97;;;35.50;91.80;38.00;96938.00;;;;5046339;28;20236;-87
2023/08/24 12:21:39;;;;;;;8.18;7.00;;;35.40;92.10;37.80;96932.00;;;;5039830;28;20224;-86
2023/08/24 12:24:28;;;;;;;14.32;7.97;;;35.20;91.80;37.60;96928.00;;;;5047462;28;20204;-85
2023/08/24 12:27:21;;;;;;;12.82;8.27;;;35.20;91.00;37.60;96924.00;;;;5044921;28;20673;-87
2023/08/24 12:30:12;;;;;;;7.90;6.65;;;35.00;91.80;38.80;96972.00;;;;5042566;28;20224;-87
2023/08/24 12:33:01;;;;;;;9.07;7.10;;;35.20;91.60;39.20;96937.00;;;;5041793;28;20205;-86
2023/08/24 12:35:50;;;;;;;7.72;6.93;;;35.40;91.90;39.40;96933.00;;;;5046064;28;20225;-86
2023/08/24 12:38:41;;;;;;;8.45;7.45;;;35.80;91.90;40.10;96922.00;;;;5041372;28;20210;-87
2023/08/24 12:41:30;;;;;;;10.48;7.30;;;36.10;90.90;40.90;96919.00;;;;5044553;28;20217;-87
2023/08/24 12:44:19;;;;;;;10.27;7.40;;;37.30;91.30;40.30;96914.00;;;;5053371;28;20205;-86
2023/08/24 12:47:10;;;;;;;10.82;7.43;;;36.90;90.10;39.50;96912.00;;;;5057801;28;20201;-86
2023/08/24 12:49:58;;;;;;;8.57;7.28;;;36.80;87.60;39.40;96957.00;;;;5057023;28;20244;-86
2023/08/24 12:52:47;;;;;;;8.05;7.20;;;36.60;88.60;38.50;96967.00;;;;5039239;28;20215;-86
2023/08/24 12:55:39;;;;;;;12.40;7.55;;;36.20;88.00;38.50;96906.00;;;;5050851;28;20238;-86
2023/08/24 12:58:28;;;;;;;8.18;7.38;;;35.80;89.10;39.90;96909.00;;;;5041417;28;20212;-86
2023/08/24 13:01:17;;;;;;;9.23;7.22;;;36.00;90.10;39.30;96902.00;;;;5042192;28;20229;-85
2023/08/24 13:04:07;;;;;;;10.93;7.07;;;36.20;89.20;37.70;96890.00;;;;5052152;28;20213;-87
2023/08/24 13:06:56;;;;;;;9.18;7.70;;;35.90;88.50;40.00;96889.00;;;;5043838;28;20202;-86
2023/08/24 13:09:45;;;;;;;9.85;8.00;;;36.00;89.90;40.10;96888.00;;;;5041980;28;20224;-86
2023/08/24 13:12:35;;;;;;;10.80;7.45;;;36.30;89.50;41.30;96880.00;;;;5045255;28;20527;-87
2023/08/24 13:15:24;;;;;;;9.15;8.20;;;36.80;89.70;41.90;96873.00;;;;5031103;28;20235;-86
2023/08/24 13:18:13;;;;;;;8.27;6.60;;;37.30;88.80;42.00;96877.00;;;;5032328;28;20211;-86
2023/08/24 13:21:04;;;;;;;10.00;8.18;;;37.70;87.30;42.20;96871.00;;;;5050735;28;20224;-86
2023/08/24 13:23:53;;;;;;;12.52;8.32;;;38.10;87.20;42.60;96866.00;;;;5049935;28;20487;-86
2023/08/24 13:26:42;;;;;;;8.40;7.15;;;38.40;85.10;42.80;96860.00;;;;5044098;28;20193;-86
2023/08/24 13:29:31;;;;;;;11.65;7.60;;;38.70;83.80;43.40;96857.00;;;;5042244;28;20205;-86
2023/08/24 13:32:20;;;;;;;7.85;7.15;;;38.90;83.50;43.20;96858.00;;;;5045114;28;20205;-86